createdAt,value
2023-01-11T00:02:20.310Z,3.73
2023-01-11T00:05:09.617Z,6.80
2023-01-11T00:07:56.867Z,6.17
2023-01-11T00:10:44.810Z,6.77
2023-01-11T00:13:32.488Z,6.20
2023-01-11T00:16:19.319Z,11.07
2023-01-11T00:19:06.050Z,11.27
2023-01-11T00:21:52.796Z,6.53
2023-01-11T00:24:39.766Z,10.27
2023-01-11T00:27:28.115Z,11.53
2023-01-11T00:30:18.421Z,5.80
2023-01-11T00:33:05.174Z,13.70
2023-01-11T00:35:52.649Z,9.00
2023-01-11T00:42:25.199Z,8.23
2023-01-11T00:45:30.820Z,6.33
2023-01-11T00:48:18.259Z,5.40
2023-01-11T00:51:05.905Z,3.37
2023-01-11T00:53:53.595Z,4.23
2023-01-11T00:56:41.173Z,8.40
2023-01-11T00:59:28.424Z,16.67
2023-01-11T01:02:17.130Z,10.77
2023-01-11T01:05:04.775Z,9.70
2023-01-11T01:07:51.657Z,8.27
2023-01-11T01:10:38.724Z,6.13
2023-01-11T01:13:43.471Z,10.50
2023-01-11T01:16:32.594Z,10.50
2023-01-11T01:19:22.513Z,6.67
2023-01-11T01:22:09.310Z,9.33
2023-01-11T01:24:55.874Z,5.33
2023-01-11T01:27:42.771Z,10.83
2023-01-11T01:30:29.673Z,9.73
2023-01-11T01:33:17.588Z,6.63
2023-01-11T01:36:07.219Z,7.63
2023-01-11T01:38:55.866Z,5.20
2023-01-11T01:41:44.635Z,4.73
2023-01-11T01:44:58.040Z,6.90
2023-01-11T01:47:47.865Z,7.47
2023-01-11T01:50:38.814Z,11.57
2023-01-11T01:53:32.330Z,4.47
2023-01-11T01:56:25.957Z,7.50
2023-01-11T01:59:18.660Z,6.33
2023-01-11T02:02:05.504Z,6.63
2023-01-11T02:04:53.507Z,5.33
2023-01-11T02:07:43.427Z,6.80
2023-01-11T02:10:31.220Z,5.10
2023-01-11T02:13:18.598Z,5.77
2023-01-11T02:19:44.829Z,7.93
2023-01-11T02:23:10.571Z,8.70
2023-01-11T02:26:25.874Z,12.87
2023-01-11T02:29:21.873Z,12.13
2023-01-11T02:32:20.594Z,6.97
2023-01-11T02:35:18.244Z,4.53
2023-01-11T02:38:11.872Z,5.73
2023-01-11T02:41:07.223Z,4.37
2023-01-11T02:44:19.911Z,6.03
2023-01-11T02:47:15.338Z,8.67
2023-01-11T02:50:08.146Z,8.03
2023-01-11T02:53:00.792Z,11.83
2023-01-11T02:55:52.569Z,9.93
2023-01-11T02:58:44.692Z,5.23
2023-01-11T03:01:32.475Z,6.57
2023-01-11T03:04:27.397Z,5.60
2023-01-11T03:07:29.770Z,6.97
2023-01-11T03:10:28.633Z,7.67
2023-01-11T03:13:26.823Z,3.47
2023-01-11T03:16:25.692Z,5.50
2023-01-11T03:19:26.109Z,7.20
2023-01-11T03:22:25.967Z,8.83
2023-01-11T03:25:19.804Z,6.97
2023-01-11T03:28:14.158Z,4.60
2023-01-11T03:31:03.631Z,7.70
2023-01-11T03:33:59.443Z,10.40
2023-01-11T03:36:53.872Z,5.80
2023-01-11T03:39:46.896Z,5.47
2023-01-11T03:42:56.547Z,6.37
2023-01-11T03:45:50.015Z,4.17
2023-01-11T03:48:43.909Z,6.20
2023-01-11T03:51:35.244Z,4.23
2023-01-11T03:54:24.909Z,4.73
2023-01-11T03:57:17.704Z,2.73
2023-01-11T04:00:05.093Z,6.60
2023-01-11T04:02:53.997Z,2.47
2023-01-11T04:05:44.329Z,9.37
2023-01-11T04:08:32.058Z,6.80
2023-01-11T04:11:18.751Z,8.23
2023-01-11T04:14:07.041Z,3.13
2023-01-11T04:16:53.779Z,4.63
2023-01-11T04:19:40.429Z,5.53
2023-01-11T04:22:27.091Z,5.87
2023-01-11T04:25:13.881Z,10.03
2023-01-11T04:28:01.473Z,2.90
2023-01-11T04:30:49.205Z,5.03
2023-01-11T04:33:36.025Z,4.67
2023-01-11T04:36:22.860Z,5.73
2023-01-11T04:39:10.723Z,5.27
2023-01-11T04:42:14.754Z,3.07
2023-01-11T04:45:01.621Z,2.17
2023-01-11T04:47:55.190Z,6.63
2023-01-11T04:50:42.021Z,2.47
2023-01-11T04:53:28.769Z,3.97
2023-01-11T04:56:16.284Z,7.50
2023-01-11T04:59:03.283Z,2.97
2023-01-11T05:01:49.918Z,7.33
2023-01-11T05:04:38.098Z,2.83
2023-01-11T05:07:24.872Z,4.00
2023-01-11T05:10:12.533Z,3.47
2023-01-11T05:12:59.315Z,6.87
2023-01-11T05:15:46.192Z,4.37
2023-01-11T05:18:32.946Z,5.23
2023-01-11T05:21:23.007Z,8.57
2023-01-11T05:24:13.116Z,5.13
2023-01-11T05:26:59.879Z,4.37
2023-01-11T05:29:46.736Z,4.67
2023-01-11T05:32:33.265Z,5.67
2023-01-11T05:35:20.167Z,3.33
2023-01-11T05:38:08.273Z,4.43
2023-01-11T05:40:56.386Z,3.03
2023-01-11T05:43:59.301Z,4.63
2023-01-11T05:46:46.371Z,8.30
2023-01-11T05:49:32.705Z,7.73
2023-01-11T05:52:19.532Z,6.73
2023-01-11T05:55:09.482Z,8.30
2023-01-11T05:57:55.971Z,6.53
2023-01-11T06:00:42.739Z,3.70
2023-01-11T06:03:29.323Z,2.87
2023-01-11T06:06:17.811Z,6.97
2023-01-11T06:09:04.460Z,3.23
2023-01-11T06:11:52.440Z,2.77
2023-01-11T06:14:39.160Z,2.50
2023-01-11T06:17:25.934Z,5.40
2023-01-11T06:20:13.616Z,2.97
2023-01-11T06:23:00.170Z,4.90
2023-01-11T06:25:46.998Z,4.53
2023-01-11T06:28:35.212Z,2.27
2023-01-11T06:31:21.946Z,6.27
2023-01-11T06:34:08.645Z,5.10
2023-01-11T06:36:57.130Z,4.30
2023-01-11T06:39:44.016Z,7.63
2023-01-11T06:42:30.719Z,3.27
2023-01-11T06:45:19.004Z,4.30
2023-01-11T06:48:06.399Z,2.80
2023-01-11T06:50:54.437Z,4.47
2023-01-11T06:53:42.755Z,2.60
2023-01-11T06:56:30.023Z,4.13
2023-01-11T06:59:16.875Z,8.73
2023-01-11T07:02:04.997Z,4.80
2023-01-11T07:04:51.894Z,3.07
2023-01-11T07:07:38.670Z,3.43
2023-01-11T07:10:25.290Z,3.30
2023-01-11T07:13:12.687Z,2.63
2023-01-11T07:15:59.701Z,4.73
2023-01-11T07:18:47.733Z,2.17
2023-01-11T07:21:34.563Z,4.83
2023-01-11T07:24:22.953Z,4.57
2023-01-11T07:27:09.688Z,2.80
2023-01-11T07:29:56.352Z,2.70
2023-01-11T07:32:43.068Z,3.93
2023-01-11T07:35:31.868Z,4.83
2023-01-11T07:38:18.415Z,3.13
2023-01-11T07:41:25.488Z,4.87
2023-01-11T07:44:10.994Z,4.23
2023-01-11T07:46:58.353Z,2.83
2023-01-11T07:49:45.076Z,3.77
2023-01-11T07:52:33.227Z,3.33
2023-01-11T07:55:19.904Z,2.47
2023-01-11T07:58:06.684Z,2.23
2023-01-11T08:00:53.569Z,5.40
2023-01-11T08:03:40.602Z,4.87
2023-01-11T08:06:27.200Z,4.27
2023-01-11T08:09:15.497Z,5.17
2023-01-11T08:12:19.200Z,3.63
2023-01-11T08:15:07.305Z,5.30
2023-01-11T08:17:53.842Z,5.53
2023-01-11T08:20:41.238Z,2.10
2023-01-11T08:23:28.077Z,5.53
2023-01-11T08:26:18.168Z,3.13
2023-01-11T08:29:05.196Z,3.40
2023-01-11T08:31:51.658Z,1.57
2023-01-11T08:34:38.467Z,2.50
2023-01-11T08:37:25.071Z,3.40
2023-01-11T08:40:13.394Z,3.27
2023-01-11T08:43:01.525Z,2.80
2023-01-11T08:45:48.209Z,4.00
2023-01-11T08:48:34.933Z,5.93
2023-01-11T08:51:21.998Z,4.80
2023-01-11T08:54:11.827Z,2.30
2023-01-11T08:56:58.251Z,5.43
2023-01-11T08:59:46.492Z,5.13
2023-01-11T09:02:34.187Z,3.00
2023-01-11T09:05:21.175Z,6.30
2023-01-11T09:08:09.388Z,4.60
2023-01-11T09:10:59.771Z,2.57
2023-01-11T09:13:46.533Z,4.07
2023-01-11T09:16:34.741Z,3.67
2023-01-11T09:19:21.617Z,3.57
2023-01-11T09:22:08.274Z,5.47
2023-01-11T09:24:55.490Z,6.27
2023-01-11T09:27:44.443Z,2.57
2023-01-11T09:30:31.375Z,4.20
2023-01-11T09:33:19.525Z,3.10
2023-01-11T09:36:06.990Z,7.17
2023-01-11T09:38:56.904Z,6.03
2023-01-11T09:42:17.413Z,4.90
2023-01-11T09:45:11.559Z,2.67
2023-01-11T09:48:05.071Z,7.70
2023-01-11T09:50:52.825Z,3.60
2023-01-11T09:53:46.826Z,3.10
2023-01-11T09:56:56.550Z,4.80
2023-01-11T10:00:00.156Z,8.70
2023-01-11T10:03:05.293Z,2.40
2023-01-11T10:06:10.749Z,8.10
2023-01-11T10:18:33.480Z,5.73
2023-01-11T10:22:20.087Z,5.03
2023-01-11T10:25:18.835Z,7.27
2023-01-11T10:28:13.808Z,2.67
2023-01-11T10:34:50.021Z,5.43
2023-01-11T10:38:02.715Z,5.57
2023-01-11T10:41:07.094Z,3.17
2023-01-11T10:44:05.654Z,2.70
2023-01-11T10:46:57.186Z,3.03
2023-01-11T10:49:51.282Z,2.70
2023-01-11T10:52:48.517Z,4.73
2023-01-11T10:55:45.600Z,1.87
2023-01-11T10:58:46.171Z,4.23
2023-01-11T11:01:49.451Z,3.43
2023-01-11T11:04:56.297Z,2.00
2023-01-11T11:07:53.404Z,4.13
2023-01-11T11:10:50.344Z,3.07
2023-01-11T11:13:47.730Z,2.10
2023-01-11T11:16:45.975Z,5.10
2023-01-11T11:19:34.267Z,2.70
2023-01-11T11:22:21.164Z,2.37
2023-01-11T11:25:17.841Z,2.67
2023-01-11T11:28:07.217Z,3.00
2023-01-11T11:30:55.634Z,3.73
2023-01-11T11:33:43.913Z,4.77
2023-01-11T11:36:42.412Z,5.00
2023-01-11T11:39:31.249Z,2.47
2023-01-11T11:42:21.500Z,2.53
2023-01-11T11:45:18.198Z,2.30
2023-01-11T11:48:07.610Z,2.57
2023-01-11T11:50:56.418Z,2.37
2023-01-11T11:53:51.280Z,1.97
2023-01-11T11:56:38.840Z,2.83
2023-01-11T11:59:32.876Z,2.27
2023-01-11T12:02:26.460Z,1.90
2023-01-11T12:05:13.312Z,2.63
2023-01-11T12:08:01.055Z,1.87
2023-01-11T12:10:52.100Z,2.10
2023-01-11T12:13:42.487Z,3.07
2023-01-11T12:16:36.657Z,2.00
2023-01-11T12:19:28.621Z,2.07
2023-01-11T12:22:19.633Z,2.20
2023-01-11T12:25:21.670Z,2.80
2023-01-11T12:28:16.211Z,1.67
2023-01-11T12:31:10.233Z,3.57
2023-01-11T12:34:10.472Z,1.87
2023-01-11T12:37:10.016Z,2.00
2023-01-11T12:40:03.860Z,1.73
2023-01-11T12:43:05.404Z,2.80
2023-01-11T12:46:02.876Z,2.80
2023-01-11T12:49:02.938Z,2.10
2023-01-11T12:52:05.085Z,2.60
2023-01-11T12:55:10.997Z,1.70
2023-01-11T12:58:02.054Z,2.07
2023-01-11T13:01:07.011Z,2.43
2023-01-11T13:04:18.345Z,2.13
2023-01-11T13:07:15.563Z,2.17
2023-01-11T13:10:18.158Z,2.40
2023-01-11T13:13:10.951Z,2.37
2023-01-11T13:16:18.884Z,2.40
2023-01-11T13:19:17.785Z,5.27
2023-01-11T13:22:06.981Z,2.63
2023-01-11T13:24:53.747Z,3.10
2023-01-11T13:27:43.898Z,2.77
2023-01-11T13:30:33.831Z,2.90
2023-01-11T13:33:31.858Z,2.63
2023-01-11T13:36:29.177Z,2.60
2023-01-11T13:39:26.978Z,2.57
2023-01-11T13:42:19.381Z,2.90
2023-01-11T13:45:18.196Z,2.67
2023-01-11T13:48:26.259Z,2.70
2023-01-11T13:51:30.895Z,3.93
2023-01-11T13:54:30.901Z,2.60
2023-01-11T13:57:48.380Z,3.50
2023-01-11T14:01:09.301Z,4.23
2023-01-11T14:04:07.461Z,2.60
2023-01-11T14:07:21.544Z,3.23
2023-01-11T14:10:39.931Z,2.93
2023-01-11T14:14:18.699Z,2.30
2023-01-11T14:17:31.347Z,2.67
2023-01-11T14:20:26.907Z,3.43
2023-01-11T14:23:19.773Z,2.30
2023-01-11T14:26:43.074Z,2.67
2023-01-11T14:30:01.109Z,5.07
2023-01-11T14:33:30.200Z,2.30
2023-01-11T14:36:44.353Z,3.50
2023-01-11T14:40:03.191Z,4.13
2023-01-11T14:43:19.504Z,2.40
2023-01-11T14:46:47.809Z,2.90
2023-01-11T14:49:44.671Z,2.50
2023-01-11T14:52:40.014Z,2.60
2023-01-11T14:55:32.538Z,2.90
2023-01-11T14:58:26.307Z,2.97
2023-01-11T15:01:12.965Z,2.60
2023-01-11T15:04:05.848Z,3.93
2023-01-11T15:06:56.210Z,2.60
2023-01-11T15:09:44.722Z,4.63
2023-01-11T15:12:36.438Z,3.37
2023-01-11T15:15:45.559Z,3.13
2023-01-11T15:18:31.848Z,3.13
2023-01-11T15:21:26.669Z,3.10
2023-01-11T15:24:24.355Z,5.03
2023-01-11T15:27:25.547Z,3.20
2023-01-11T15:30:38.589Z,2.83
2023-01-11T15:33:46.926Z,3.07
2023-01-11T15:37:06.746Z,6.23
2023-01-11T15:39:59.329Z,3.90
2023-01-11T15:43:20.230Z,3.30
2023-01-11T15:46:46.110Z,4.37
2023-01-11T15:50:07.329Z,3.40
2023-01-11T15:53:20.127Z,6.90
2023-01-11T15:56:37.413Z,4.53
2023-01-11T15:59:42.413Z,3.40
2023-01-11T16:03:06.013Z,6.93
2023-01-11T16:05:59.836Z,3.17
2023-01-11T16:08:58.118Z,3.30
2023-01-11T16:11:54.376Z,2.73
2023-01-11T16:15:00.884Z,4.93
2023-01-11T16:17:49.343Z,2.50
2023-01-11T16:20:37.006Z,3.17
2023-01-11T16:23:25.084Z,3.30
2023-01-11T16:26:16.672Z,5.13
2023-01-11T16:29:09.519Z,2.57
2023-01-11T16:31:58.728Z,3.70
2023-01-11T16:34:51.319Z,3.23
2023-01-11T16:37:43.776Z,2.63
2023-01-11T16:40:36.752Z,3.97
2023-01-11T16:43:27.780Z,3.07
2023-01-11T16:46:50.302Z,2.40
2023-01-11T16:49:37.231Z,3.33
2023-01-11T16:52:56.398Z,2.10
2023-01-11T16:55:45.763Z,2.80
2023-01-11T16:58:34.497Z,2.50
2023-01-11T17:01:21.138Z,2.80
2023-01-11T17:04:26.563Z,3.27
2023-01-11T17:07:15.626Z,3.47
2023-01-11T17:10:21.906Z,2.43
2023-01-11T17:13:41.408Z,3.57
2023-01-11T17:16:31.673Z,3.73
2023-01-11T17:19:21.155Z,3.70
2023-01-11T17:22:15.374Z,3.10
2023-01-11T17:25:04.343Z,2.43
2023-01-11T17:28:00.371Z,2.97
2023-01-11T17:30:49.972Z,1.80
2023-01-11T17:33:37.448Z,1.83
2023-01-11T17:36:24.437Z,1.90
2023-01-11T17:39:19.918Z,5.07
2023-01-11T17:42:26.122Z,2.30
2023-01-11T17:45:21.329Z,4.90
2023-01-11T17:48:15.692Z,2.70
2023-01-11T17:51:03.482Z,2.63
2023-01-11T17:53:51.755Z,2.77
2023-01-11T17:56:41.870Z,2.63
2023-01-11T17:59:30.010Z,3.07
2023-01-11T18:02:18.391Z,2.77
2023-01-11T18:05:05.551Z,2.20
2023-01-11T18:07:57.741Z,2.40
2023-01-11T18:10:51.386Z,2.50
2023-01-11T18:13:38.196Z,1.87
2023-01-11T18:16:25.641Z,2.70
2023-01-11T18:19:32.396Z,2.80
2023-01-11T18:22:32.468Z,2.80
2023-01-11T18:25:21.390Z,2.40
2023-01-11T18:28:22.792Z,3.77
2023-01-11T18:31:09.719Z,3.27
2023-01-11T18:33:56.403Z,2.97
2023-01-11T18:36:44.800Z,2.97
2023-01-11T18:39:31.605Z,4.77
2023-01-11T18:42:21.813Z,4.30
2023-01-11T18:45:11.209Z,4.30
2023-01-11T18:47:58.173Z,6.60
2023-01-11T18:50:46.339Z,6.93
2023-01-11T18:53:34.436Z,5.07
2023-01-11T18:56:21.151Z,10.37
2023-01-11T18:59:07.974Z,5.83
2023-01-11T19:02:11.672Z,10.97
2023-01-11T19:05:03.706Z,9.03
2023-01-11T19:07:50.665Z,6.00
2023-01-11T19:10:38.588Z,4.40
2023-01-11T19:13:25.378Z,7.00
2023-01-11T19:16:12.254Z,5.33
2023-01-11T19:18:59.070Z,9.23
2023-01-11T19:21:45.947Z,7.77
2023-01-11T19:24:33.272Z,8.03
2023-01-11T19:27:21.924Z,10.40
2023-01-11T19:30:10.019Z,10.50
2023-01-11T19:32:56.666Z,9.17
2023-01-11T19:35:44.445Z,8.50
2023-01-11T19:38:33.891Z,8.27
2023-01-11T19:41:20.833Z,8.60
2023-01-11T19:44:09.084Z,7.90
2023-01-11T19:47:10.029Z,10.30
2023-01-11T19:49:59.687Z,8.47
2023-01-11T19:52:46.920Z,9.97
2023-01-11T19:55:33.748Z,8.63
2023-01-11T19:58:20.536Z,6.17
2023-01-11T20:01:13.029Z,9.83
2023-01-11T20:03:59.901Z,10.70
2023-01-11T20:06:50.602Z,15.67
2023-01-11T20:09:38.078Z,7.77
2023-01-11T20:12:24.732Z,10.33
2023-01-11T20:15:13.051Z,8.10
2023-01-11T20:18:02.073Z,7.40
2023-01-11T20:20:56.607Z,10.33
2023-01-11T20:23:43.421Z,10.87
2023-01-11T20:26:33.852Z,8.93
2023-01-11T20:29:20.561Z,12.57
2023-01-11T20:32:31.149Z,8.13
2023-01-11T20:35:15.597Z,8.50
2023-01-11T20:38:03.519Z,14.40
2023-01-11T20:40:50.324Z,7.37
2023-01-11T20:43:38.239Z,14.63
2023-01-11T20:46:25.606Z,8.53
2023-01-11T20:49:12.564Z,7.20
2023-01-11T20:52:02.251Z,10.03
2023-01-11T20:55:07.715Z,10.17
2023-01-11T20:57:58.692Z,12.93
2023-01-11T21:00:47.034Z,8.80
2023-01-11T21:03:34.669Z,11.37
2023-01-11T21:06:22.709Z,10.37
2023-01-11T21:09:14.223Z,13.77
2023-01-11T21:12:00.759Z,6.77
2023-01-11T21:14:47.699Z,10.40
2023-01-11T21:17:35.585Z,10.03
2023-01-11T21:20:22.424Z,14.93
2023-01-11T21:23:15.276Z,10.10
2023-01-11T21:26:04.959Z,12.97
2023-01-11T21:28:53.874Z,20.33
2023-01-11T21:31:40.945Z,12.87
2023-01-11T21:34:27.925Z,14.77
2023-01-11T21:37:14.474Z,8.97
2023-01-11T21:40:01.420Z,9.27
2023-01-11T21:42:49.536Z,17.93
2023-01-11T21:45:36.312Z,12.47
2023-01-11T21:48:23.707Z,8.50
2023-01-11T21:51:10.708Z,11.97
2023-01-11T21:53:58.055Z,9.03
2023-01-11T21:56:45.393Z,18.40
2023-01-11T21:59:33.791Z,15.20
2023-01-11T22:02:20.292Z,12.27
2023-01-11T22:05:08.767Z,12.80
2023-01-11T22:07:57.692Z,15.50
2023-01-11T22:10:44.301Z,12.67
2023-01-11T22:13:31.794Z,10.97
2023-01-11T22:16:19.984Z,13.37
2023-01-11T22:19:08.608Z,13.67
2023-01-11T22:21:55.399Z,7.10
2023-01-11T22:24:42.180Z,12.90
2023-01-11T22:27:29.145Z,11.40
2023-01-11T22:30:16.301Z,10.77
2023-01-11T22:33:04.358Z,8.60
2023-01-11T22:35:55.444Z,13.60
2023-01-11T22:38:42.784Z,13.73
2023-01-11T22:41:29.763Z,10.77
2023-01-11T22:44:17.093Z,13.57
2023-01-11T22:47:03.809Z,12.53
2023-01-11T22:49:54.180Z,11.57
2023-01-11T22:52:41.740Z,9.57
2023-01-11T22:55:28.509Z,9.90
2023-01-11T22:58:15.366Z,6.37
2023-01-11T23:01:11.295Z,16.57
2023-01-11T23:03:59.089Z,10.50
2023-01-11T23:06:47.368Z,17.50
2023-01-11T23:09:34.162Z,12.63
2023-01-11T23:12:38.178Z,21.00
2023-01-11T23:15:24.852Z,11.97
2023-01-11T23:18:11.706Z,9.93
2023-01-11T23:21:04.000Z,11.43
2023-01-11T23:23:52.329Z,13.67
2023-01-11T23:26:39.130Z,10.53
2023-01-11T23:29:25.856Z,13.90
2023-01-11T23:32:12.295Z,12.63
2023-01-11T23:34:58.969Z,22.23
2023-01-11T23:37:46.345Z,14.10
2023-01-11T23:40:56.860Z,17.77
2023-01-11T23:43:42.872Z,9.60
2023-01-11T23:46:48.095Z,13.97
2023-01-11T23:49:35.087Z,14.77
2023-01-11T23:52:24.028Z,10.63
2023-01-11T23:55:10.947Z,12.13
2023-01-11T23:58:10.027Z,15.57
